Time;durP1;ratioP1;P1;durP2;ratioP2;P2;SDS_P1;SDS_P2;PMS_P1;PMS_P2;Temp;Humidity;BMP_temperature;BMP_pressure;BME280_temperature;BME280_humidity;BME280_pressure;Samples;Min_cycle;Max_cycle;Signal;HPM_P1;HPM_P2
2022/03/24 00:01:03;;;;;;;11.45;6.70;;;;;;;;;;10195775;28;20074;-58
2022/03/24 00:06:02;;;;;;;12.68;8.32;;;;;;;;;;10197844;28;20526;-59
2022/03/24 00:11:00;;;;;;;13.40;7.82;;;;;;;;;;10199558;28;20041;-59
2022/03/24 00:15:59;;;;;;;8.85;7.03;;;;;;;;;;10199091;28;20105;-59
2022/03/24 00:20:59;;;;;;;10.15;7.20;;;;;;;;;;10184085;28;20050;-59
2022/03/24 00:25:57;;;;;;;9.77;7.25;;;;;;;;;;10197387;28;20046;-59
2022/03/24 00:30:55;;;;;;;12.63;6.80;;;;;;;;;;10199078;28;20050;-59
2022/03/24 00:35:54;;;;;;;14.70;7.15;;;;;;;;;;10199148;28;20073;-59
2022/03/24 00:40:54;;;;;;;11.68;7.90;;;;;;;;;;10194011;28;20057;-59
2022/03/24 00:45:54;;;;;;;10.18;7.60;;;;;;;;;;10196184;28;20091;-59
2022/03/24 00:50:52;;;;;;;16.50;7.95;;;;;;;;;;10198347;28;20069;-59
2022/03/24 00:55:51;;;;;;;17.05;10.95;;;;;;;;;;10197252;28;20081;-58
2022/03/24 01:00:50;;;;;;;16.50;10.85;;;;;;;;;;10195078;28;20644;-60
2022/03/24 01:05:49;;;;;;;14.52;8.48;;;;;;;;;;10195166;28;20057;-59
2022/03/24 01:10:48;;;;;;;15.90;10.05;;;;;;;;;;10192218;28;20507;-59
2022/03/24 01:15:47;;;;;;;16.52;10.30;;;;;;;;;;10192484;28;20439;-59
2022/03/24 01:20:46;;;;;;;26.85;12.18;;;;;;;;;;10192495;28;20675;-60
2022/03/24 01:25:45;;;;;;;26.48;11.65;;;;;;;;;;10191450;28;20819;-60
2022/03/24 01:30:43;;;;;;;22.38;12.30;;;;;;;;;;10192330;28;20456;-60
2022/03/24 01:35:44;;;;;;;18.80;9.93;;;;;;;;;;10186059;28;20495;-60
2022/03/24 01:40:43;;;;;;;21.05;11.07;;;;;;;;;;10191807;28;20073;-59
2022/03/24 01:45:42;;;;;;;21.45;11.27;;;;;;;;;;10191421;28;20474;-60
2022/03/24 01:50:40;;;;;;;16.80;9.20;;;;;;;;;;10192272;28;20487;-57
2022/03/24 01:55:39;;;;;;;20.30;10.60;;;;;;;;;;10191463;28;20073;-60
2022/03/24 02:00:39;;;;;;;18.55;10.38;;;;;;;;;;10181733;28;20545;-59
2022/03/24 02:05:39;;;;;;;24.40;10.35;;;;;;;;;;10189504;28;20080;-60
2022/03/24 02:10:38;;;;;;;18.35;9.82;;;;;;;;;;10184941;28;20511;-60
2022/03/24 02:15:38;;;;;;;16.10;8.60;;;;;;;;;;10185946;28;20536;-59
2022/03/24 02:20:39;;;;;;;20.02;9.48;;;;;;;;;;10189791;28;20046;-60
2022/03/24 02:25:40;;;;;;;16.67;9.07;;;;;;;;;;10185220;28;20050;-59
2022/03/24 02:30:38;;;;;;;21.65;8.93;;;;;;;;;;10187811;28;20981;-60
2022/03/24 02:35:36;;;;;;;11.38;8.35;;;;;;;;;;10188536;28;20080;-59
2022/03/24 02:40:35;;;;;;;13.77;8.00;;;;;;;;;;10190790;28;20092;-59
2022/03/24 02:45:34;;;;;;;18.05;9.57;;;;;;;;;;10190435;28;20077;-59
2022/03/24 02:50:34;;;;;;;14.00;8.18;;;;;;;;;;10189074;28;20077;-59
2022/03/24 02:55:32;;;;;;;13.23;9.18;;;;;;;;;;10193719;28;20038;-59
2022/03/24 03:00:30;;;;;;;14.45;7.47;;;;;;;;;;10193770;28;20074;-58
2022/03/24 03:05:30;;;;;;;13.27;8.00;;;;;;;;;;10192576;28;20089;-59
2022/03/24 03:10:29;;;;;;;17.30;8.10;;;;;;;;;;10187109;28;20076;-58
2022/03/24 03:15:27;;;;;;;16.88;8.52;;;;;;;;;;10190714;28;20062;-59
2022/03/24 03:20:26;;;;;;;14.45;6.90;;;;;;;;;;10190727;28;20089;-59
2022/03/24 03:25:29;;;;;;;11.77;8.25;;;;;;;;;;10193113;28;20320;-59
2022/03/24 03:30:27;;;;;;;11.02;6.95;;;;;;;;;;10191190;28;20281;-56
2022/03/24 03:35:27;;;;;;;10.93;7.82;;;;;;;;;;10189208;28;20073;-57
2022/03/24 03:40:25;;;;;;;18.75;8.80;;;;;;;;;;10183144;28;20097;-58
2022/03/24 03:45:25;;;;;;;17.42;9.18;;;;;;;;;;10188270;28;20072;-60
2022/03/24 03:50:25;;;;;;;9.93;7.07;;;;;;;;;;10189508;28;20470;-60
2022/03/24 03:55:23;;;;;;;9.63;7.22;;;;;;;;;;10185985;28;20081;-57
2022/03/24 04:05:39;;;;;;;10.75;7.47;;;;;;;;;;10188209;28;20054;-60
2022/03/24 04:10:37;;;;;;;13.75;8.15;;;;;;;;;;10186065;28;20069;-60
2022/03/24 04:15:36;;;;;;;21.85;13.02;;;;;;;;;;10187883;28;20537;-59
2022/03/24 04:20:34;;;;;;;12.15;8.00;;;;;;;;;;10182955;28;20077;-58
2022/03/24 04:25:34;;;;;;;13.73;7.90;;;;;;;;;;10188151;28;20112;-59
2022/03/24 04:30:34;;;;;;;11.75;7.00;;;;;;;;;;10182325;28;20174;-58
2022/03/24 04:35:33;;;;;;;13.73;7.13;;;;;;;;;;10184110;28;20093;-58
2022/03/24 04:40:31;;;;;;;13.07;7.32;;;;;;;;;;10189221;28;20192;-58
2022/03/24 04:45:32;;;;;;;12.90;8.45;;;;;;;;;;10190718;28;20077;-56
2022/03/24 04:50:31;;;;;;;11.27;7.57;;;;;;;;;;10192524;28;20088;-58
2022/03/24 04:55:29;;;;;;;14.38;8.18;;;;;;;;;;10191588;28;20081;-59
2022/03/24 05:00:28;;;;;;;17.10;7.75;;;;;;;;;;10188208;28;20467;-60
2022/03/24 05:05:28;;;;;;;11.40;6.82;;;;;;;;;;10193108;28;20049;-59
2022/03/24 05:10:27;;;;;;;13.57;7.70;;;;;;;;;;10174489;28;20069;-57
2022/03/24 05:15:26;;;;;;;13.75;6.85;;;;;;;;;;10191455;28;20069;-57
2022/03/24 05:20:24;;;;;;;14.65;7.50;;;;;;;;;;10191931;28;20107;-59
2022/03/24 05:25:25;;;;;;;20.27;8.07;;;;;;;;;;10190018;28;20134;-59
2022/03/24 05:30:28;;;;;;;12.80;7.15;;;;;;;;;;10193814;28;20073;-57
2022/03/24 05:35:27;;;;;;;11.27;6.68;;;;;;;;;;10192994;28;20078;-59
2022/03/24 05:40:27;;;;;;;15.68;6.70;;;;;;;;;;10192343;28;20088;-59
2022/03/24 05:45:25;;;;;;;14.85;7.63;;;;;;;;;;10191459;28;20521;-59
2022/03/24 05:50:24;;;;;;;14.98;7.20;;;;;;;;;;10191739;28;20084;-59
2022/03/24 05:55:57;;;;;;;13.00;7.50;;;;;;;;;;10178959;28;20092;-59
2022/03/24 06:00:55;;;;;;;12.43;7.47;;;;;;;;;;10195015;28;20073;-57
2022/03/24 06:05:54;;;;;;;17.58;8.88;;;;;;;;;;10192047;28;20076;-58
2022/03/24 06:10:52;;;;;;;20.50;10.35;;;;;;;;;;10189783;28;20077;-58
2022/03/24 06:15:53;;;;;;;18.92;8.55;;;;;;;;;;10193327;28;20492;-55
2022/03/24 06:20:52;;;;;;;13.18;9.00;;;;;;;;;;10184976;28;20077;-59
2022/03/24 06:25:50;;;;;;;12.32;7.25;;;;;;;;;;10187858;28;20062;-59
2022/03/24 06:30:48;;;;;;;12.57;7.82;;;;;;;;;;10190571;28;20065;-59
2022/03/24 06:35:49;;;;;;;12.23;8.93;;;;;;;;;;10190779;28;20065;-59
2022/03/24 06:40:47;;;;;;;22.42;11.10;;;;;;;;;;10190933;28;20531;-57
2022/03/24 06:45:45;;;;;;;12.50;8.10;;;;;;;;;;10187683;28;20076;-59
2022/03/24 06:50:43;;;;;;;14.55;6.90;;;;;;;;;;10193252;28;20077;-59
2022/03/24 06:55:43;;;;;;;15.10;7.95;;;;;;;;;;10192239;28;20060;-60
2022/03/24 07:00:41;;;;;;;19.77;9.57;;;;;;;;;;10192372;28;20080;-59
2022/03/24 07:05:40;;;;;;;15.45;10.18;;;;;;;;;;10190663;28;20054;-58
2022/03/24 07:10:38;;;;;;;15.85;10.35;;;;;;;;;;10188003;28;20050;-58
2022/03/24 07:15:38;;;;;;;18.33;10.00;;;;;;;;;;10186729;28;20066;-59
2022/03/24 07:20:36;;;;;;;21.63;10.35;;;;;;;;;;10189204;28;20073;-59
2022/03/24 07:25:36;;;;;;;30.35;15.55;;;;;;;;;;10188638;28;20080;-59
2022/03/24 07:30:34;;;;;;;25.95;17.73;;;;;;;;;;10181887;28;20046;-57
2022/03/24 07:35:35;;;;;;;23.15;11.63;;;;;;;;;;10187642;28;20080;-59
2022/03/24 07:40:33;;;;;;;15.27;9.75;;;;;;;;;;10187887;28;20089;-59
2022/03/24 07:45:37;;;;;;;18.50;9.68;;;;;;;;;;10187542;28;20046;-59
2022/03/24 07:50:38;;;;;;;15.80;11.30;;;;;;;;;;10187646;28;20046;-58
2022/03/24 07:55:38;;;;;;;18.40;10.20;;;;;;;;;;10185827;28;20844;-58
2022/03/24 08:00:36;;;;;;;29.33;18.13;;;;;;;;;;10188200;28;20081;-59
2022/03/24 08:05:34;;;;;;;20.50;13.13;;;;;;;;;;10187358;28;20502;-59
2022/03/24 08:10:34;;;;;;;23.00;13.93;;;;;;;;;;10192807;28;20081;-58
2022/03/24 08:15:32;;;;;;;19.33;10.50;;;;;;;;;;10194505;28;20531;-58
2022/03/24 08:20:31;;;;;;;25.35;13.68;;;;;;;;;;10194381;28;20069;-58
2022/03/24 08:25:29;;;;;;;18.75;11.77;;;;;;;;;;10192162;28;20080;-59
2022/03/24 08:30:29;;;;;;;21.73;14.60;;;;;;;;;;10194081;28;20073;-57
2022/03/24 08:35:28;;;;;;;19.73;10.23;;;;;;;;;;10194483;28;20081;-56
2022/03/24 08:40:26;;;;;;;18.83;11.07;;;;;;;;;;10191738;28;20471;-58
2022/03/24 08:45:24;;;;;;;29.45;16.05;;;;;;;;;;10192260;28;20073;-60
2022/03/24 08:50:24;;;;;;;39.08;23.35;;;;;;;;;;10193915;28;20081;-59
2022/03/24 08:55:23;;;;;;;16.60;10.23;;;;;;;;;;10191661;28;20085;-60
2022/03/24 09:00:23;;;;;;;21.85;13.35;;;;;;;;;;10192428;28;20081;-59
2022/03/24 09:05:21;;;;;;;12.27;8.57;;;;;;;;;;10197216;28;20077;-59
2022/03/24 09:10:20;;;;;;;21.58;13.48;;;;;;;;;;10196998;28;20084;-59
2022/03/24 09:15:19;;;;;;;26.13;11.88;;;;;;;;;;10197309;28;20065;-59
2022/03/24 09:20:19;;;;;;;16.23;10.55;;;;;;;;;;10190503;28;20089;-60
2022/03/24 09:25:18;;;;;;;15.55;9.85;;;;;;;;;;10196797;28;20491;-59
2022/03/24 09:30:19;;;;;;;14.48;7.93;;;;;;;;;;10196556;28;20476;-59
2022/03/24 09:35:17;;;;;;;26.90;8.20;;;;;;;;;;10196654;28;20100;-59
2022/03/24 09:40:16;;;;;;;13.25;8.93;;;;;;;;;;10192251;28;20077;-59
2022/03/24 09:45:14;;;;;;;20.90;8.65;;;;;;;;;;10191175;28;20069;-59
2022/03/24 09:50:14;;;;;;;17.58;9.60;;;;;;;;;;10191441;28;20084;-59
2022/03/24 09:55:12;;;;;;;15.27;8.50;;;;;;;;;;10191947;28;20449;-60
2022/03/24 10:00:11;;;;;;;12.65;7.82;;;;;;;;;;10190549;28;20076;-59
2022/03/24 10:05:18;;;;;;;19.85;8.73;;;;;;;;;;10191055;28;20511;-60
2022/03/24 10:10:25;;;;;;;15.35;10.02;;;;;;;;;;10189747;28;20515;-59
2022/03/24 10:15:23;;;;;;;16.30;8.77;;;;;;;;;;10190503;28;20100;-59
2022/03/24 10:20:22;;;;;;;19.60;9.18;;;;;;;;;;10190768;28;20787;-59
2022/03/24 10:25:21;;;;;;;22.70;9.48;;;;;;;;;;10187986;28;20526;-60
2022/03/24 10:30:21;;;;;;;20.55;12.23;;;;;;;;;;10193131;28;20082;-60
2022/03/24 10:35:19;;;;;;;21.33;8.45;;;;;;;;;;10188161;28;20077;-58
2022/03/24 10:40:19;;;;;;;13.70;9.05;;;;;;;;;;10194124;28;20081;-61
2022/03/24 10:45:18;;;;;;;13.20;8.82;;;;;;;;;;10193395;28;20855;-59
2022/03/24 10:50:26;;;;;;;10.57;7.82;;;;;;;;;;10189614;28;20074;-59
2022/03/24 10:55:41;;;;;;;15.75;9.13;;;;;;;;;;10189217;28;20104;-59
2022/03/24 11:00:40;;;;;;;10.95;7.15;;;;;;;;;;10190130;28;20187;-60
2022/03/24 11:05:40;;;;;;;12.35;8.48;;;;;;;;;;10193266;28;20089;-57
2022/03/24 11:10:43;;;;;;;14.35;8.82;;;;;;;;;;10192817;28;20069;-59
2022/03/24 11:15:48;;;;;;;11.60;6.95;;;;;;;;;;10190147;28;20062;-59
2022/03/24 11:20:49;;;;;;;13.50;7.57;;;;;;;;;;10186895;28;20085;-60
2022/03/24 11:25:48;;;;;;;11.05;7.20;;;;;;;;;;10188903;28;20099;-59
2022/03/24 11:30:47;;;;;;;13.55;7.47;;;;;;;;;;10188124;28;20089;-60
2022/03/24 11:35:45;;;;;;;9.45;6.80;;;;;;;;;;10189145;28;20121;-59
2022/03/24 11:40:45;;;;;;;10.48;7.13;;;;;;;;;;10188508;28;20530;-59
2022/03/24 11:45:52;;;;;;;15.75;7.20;;;;;;;;;;10196769;28;20609;-60
2022/03/24 11:50:52;;;;;;;10.38;7.80;;;;;;;;;;10200032;28;20423;-59
2022/03/24 11:56:09;;;;;;;10.95;8.57;;;;;;;;;;10199827;28;20076;-59
2022/03/24 12:01:25;;;;;;;13.15;8.32;;;;;;;;;;10196164;28;20093;-59
2022/03/24 12:06:51;;;;;;;13.82;9.30;;;;;;;;;;10199644;28;20056;-60
2022/03/24 12:11:52;;;;;;;10.35;7.28;;;;;;;;;;10196746;28;20082;-59
2022/03/24 12:16:53;;;;;;;11.93;7.00;;;;;;;;;;10199403;28;20070;-60
2022/03/24 12:21:58;;;;;;;8.23;6.75;;;;;;;;;;10198997;28;20077;-60
2022/03/24 12:26:59;;;;;;;10.63;7.18;;;;;;;;;;10198771;28;20069;-60
2022/03/24 12:32:00;;;;;;;10.55;7.93;;;;;;;;;;10193861;28;20106;-60
2022/03/24 12:36:59;;;;;;;13.98;9.20;;;;;;;;;;10194743;28;20073;-60
2022/03/24 12:42:05;;;;;;;16.25;7.68;;;;;;;;;;10189236;28;20088;-60
2022/03/24 12:47:06;;;;;;;9.55;7.63;;;;;;;;;;10188678;28;20070;-59
2022/03/24 12:52:06;;;;;;;19.10;7.05;;;;;;;;;;10186292;28;20146;-60
2022/03/24 12:57:20;;;;;;;12.65;6.78;;;;;;;;;;10192969;28;20065;-59
2022/03/24 13:02:20;;;;;;;11.55;7.43;;;;;;;;;;10196392;28;20084;-60
2022/03/24 13:07:20;;;;;;;10.43;6.82;;;;;;;;;;10197053;28;20077;-60
2022/03/24 13:12:18;;;;;;;13.27;8.75;;;;;;;;;;10190073;28;20067;-60
2022/03/24 13:17:16;;;;;;;12.35;6.70;;;;;;;;;;10196311;28;20138;-60
2022/03/24 13:22:19;;;;;;;11.93;7.38;;;;;;;;;;10196051;28;20077;-60
2022/03/24 13:27:18;;;;;;;12.25;7.95;;;;;;;;;;10196422;28;20103;-60
2022/03/24 13:32:18;;;;;;;13.02;7.50;;;;;;;;;;10190133;28;20088;-60
2022/03/24 13:37:19;;;;;;;10.82;7.57;;;;;;;;;;10191802;28;20077;-60
2022/03/24 13:42:17;;;;;;;9.70;7.70;;;;;;;;;;10190916;28;20091;-60
2022/03/24 13:47:17;;;;;;;11.68;7.90;;;;;;;;;;10190966;28;20073;-59
2022/03/24 13:52:30;;;;;;;11.40;7.72;;;;;;;;;;10190534;28;20496;-59
2022/03/24 13:57:30;;;;;;;13.95;7.35;;;;;;;;;;10186549;28;20091;-58
2022/03/24 14:02:28;;;;;;;15.10;9.75;;;;;;;;;;10187399;28;20081;-58
2022/03/24 14:07:27;;;;;;;9.48;6.88;;;;;;;;;;10189983;28;20868;-58
2022/03/24 14:12:27;;;;;;;10.80;8.15;;;;;;;;;;10189704;28;20112;-58
2022/03/24 14:17:27;;;;;;;19.08;13.30;;;;;;;;;;10189097;28;20084;-59
2022/03/24 14:22:27;;;;;;;16.40;10.82;;;;;;;;;;10189733;28;20148;-59
2022/03/24 14:27:27;;;;;;;17.00;9.45;;;;;;;;;;10189167;28;20065;-59
2022/03/24 14:32:27;;;;;;;18.90;8.68;;;;;;;;;;10189002;28;20073;-58
2022/03/24 14:37:26;;;;;;;14.23;8.38;;;;;;;;;;10188917;28;20080;-58
2022/03/24 14:42:24;;;;;;;16.08;9.15;;;;;;;;;;10188751;28;20076;-59
2022/03/24 14:47:22;;;;;;;31.13;23.33;;;;;;;;;;10189400;28;20565;-60
2022/03/24 14:52:22;;;;;;;22.40;13.02;;;;;;;;;;10186850;28;20073;-59
2022/03/24 14:57:20;;;;;;;32.42;22.30;;;;;;;;;;10192502;28;20058;-59
2022/03/24 15:02:20;;;;;;;14.43;10.05;;;;;;;;;;10191790;28;20081;-60
2022/03/24 15:07:19;;;;;;;26.17;18.65;;;;;;;;;;10187014;28;20077;-60
2022/03/24 15:12:19;;;;;;;17.42;12.02;;;;;;;;;;10183342;28;20080;-59
2022/03/24 15:17:17;;;;;;;16.00;9.38;;;;;;;;;;10186218;28;20073;-59
2022/03/24 15:22:15;;;;;;;15.45;8.85;;;;;;;;;;10187512;28;20100;-59
2022/03/24 15:27:14;;;;;;;18.40;12.93;;;;;;;;;;10188222;28;20096;-59
2022/03/24 15:32:13;;;;;;;23.20;14.70;;;;;;;;;;10188475;28;20080;-59
2022/03/24 15:37:12;;;;;;;20.73;12.73;;;;;;;;;;10188359;28;20042;-60
2022/03/24 15:42:10;;;;;;;20.52;15.48;;;;;;;;;;10185567;28;20088;-59
2022/03/24 15:47:09;;;;;;;30.23;21.17;;;;;;;;;;10186326;28;20084;-60
2022/03/24 15:52:08;;;;;;;19.42;12.00;;;;;;;;;;10187850;28;20081;-60
2022/03/24 15:57:07;;;;;;;68.97;46.38;;;;;;;;;;10186883;28;20070;-60
2022/03/24 16:02:07;;;;;;;79.35;50.08;;;;;;;;;;10186704;28;20085;-60
2022/03/24 16:07:05;;;;;;;43.20;27.33;;;;;;;;;;10188017;28;20062;-60
2022/03/24 16:12:07;;;;;;;21.90;16.27;;;;;;;;;;10187874;28;20073;-60
2022/03/24 16:17:05;;;;;;;40.45;23.95;;;;;;;;;;10180831;28;20050;-61
2022/03/24 16:22:04;;;;;;;28.35;17.70;;;;;;;;;;10187917;28;20475;-60
2022/03/24 16:27:03;;;;;;;23.23;12.75;;;;;;;;;;10187637;28;20065;-60
2022/03/24 16:32:03;;;;;;;25.60;20.55;;;;;;;;;;10187596;28;20339;-60
2022/03/24 16:37:03;;;;;;;25.02;18.73;;;;;;;;;;10191804;28;20058;-60
2022/03/24 16:42:01;;;;;;;32.05;15.07;;;;;;;;;;10191144;28;20085;-60
2022/03/24 16:47:00;;;;;;;28.83;19.40;;;;;;;;;;10198448;28;20062;-60
2022/03/24 16:52:00;;;;;;;25.95;17.92;;;;;;;;;;10197549;28;20065;-59
2022/03/24 16:56:58;;;;;;;33.58;23.52;;;;;;;;;;10198400;28;20080;-59
2022/03/24 17:01:57;;;;;;;43.50;25.08;;;;;;;;;;10188470;28;20085;-60
2022/03/24 17:06:55;;;;;;;34.15;20.77;;;;;;;;;;10192888;28;20069;-60
2022/03/24 17:11:55;;;;;;;25.77;17.05;;;;;;;;;;10192208;28;20080;-60
2022/03/24 17:16:53;;;;;;;28.08;23.33;;;;;;;;;;10193678;28;20042;-60
2022/03/24 17:21:52;;;;;;;17.20;11.07;;;;;;;;;;10195735;28;20078;-60
2022/03/24 17:26:50;;;;;;;14.23;9.50;;;;;;;;;;10196682;28;20081;-59
2022/03/24 17:31:50;;;;;;;14.90;10.55;;;;;;;;;;10191353;28;20536;-59
2022/03/24 17:36:48;;;;;;;12.55;9.77;;;;;;;;;;10191967;28;20069;-60
2022/03/24 17:41:47;;;;;;;12.30;7.90;;;;;;;;;;10189960;28;20062;-58
2022/03/24 17:46:45;;;;;;;13.32;9.00;;;;;;;;;;10191338;28;20076;-62
2022/03/24 17:51:45;;;;;;;10.95;6.78;;;;;;;;;;10191732;28;20101;-59
2022/03/24 17:56:43;;;;;;;11.68;8.32;;;;;;;;;;10191993;28;20066;-60
2022/03/24 18:01:41;;;;;;;9.57;7.97;;;;;;;;;;10190965;28;20082;-59
2022/03/24 18:06:39;;;;;;;12.32;7.85;;;;;;;;;;10191358;28;20069;-58
2022/03/24 18:11:39;;;;;;;12.95;7.70;;;;;;;;;;10191635;28;20084;-59
2022/03/24 18:16:37;;;;;;;14.35;8.70;;;;;;;;;;10191039;28;20084;-59
2022/03/24 18:21:36;;;;;;;14.77;9.85;;;;;;;;;;10191005;28;20472;-59
2022/03/24 18:26:34;;;;;;;13.10;9.85;;;;;;;;;;10194548;28;20073;-60
2022/03/24 18:31:34;;;;;;;11.77;7.07;;;;;;;;;;10194453;28;20088;-58
2022/03/24 18:36:32;;;;;;;15.38;7.22;;;;;;;;;;10193117;28;20073;-59
2022/03/24 18:41:31;;;;;;;16.08;7.22;;;;;;;;;;10188022;28;20105;-59
2022/03/24 18:46:29;;;;;;;11.23;6.45;;;;;;;;;;10185528;28;20077;-60
2022/03/24 18:51:29;;;;;;;12.23;5.93;;;;;;;;;;10185255;28;20082;-60
2022/03/24 18:56:27;;;;;;;10.00;6.35;;;;;;;;;;10183483;28;20523;-61
2022/03/24 19:01:26;;;;;;;37.05;22.90;;;;;;;;;;10192501;28;20049;-60
2022/03/24 19:06:24;;;;;;;21.13;16.75;;;;;;;;;;10192473;28;20073;-60
2022/03/24 19:11:24;;;;;;;28.25;16.48;;;;;;;;;;10188997;28;20114;-59
2022/03/24 19:16:22;;;;;;;24.88;16.42;;;;;;;;;;10188494;28;20459;-59
2022/03/24 19:21:21;;;;;;;30.50;17.05;;;;;;;;;;10187730;28;20066;-59
2022/03/24 19:26:19;;;;;;;29.33;16.88;;;;;;;;;;10187027;28;20081;-59
2022/03/24 19:31:19;;;;;;;79.68;47.45;;;;;;;;;;10192714;28;20096;-59
2022/03/24 19:36:17;;;;;;;77.22;48.05;;;;;;;;;;10192686;28;20077;-59
2022/03/24 19:41:15;;;;;;;43.92;23.88;;;;;;;;;;10188572;28;20499;-59
2022/03/24 19:46:14;;;;;;;32.35;17.27;;;;;;;;;;10187800;28;20073;-59
2022/03/24 19:51:13;;;;;;;33.33;21.40;;;;;;;;;;10182418;28;20525;-59
2022/03/24 19:56:12;;;;;;;38.88;22.90;;;;;;;;;;10188145;28;20462;-59
2022/03/24 20:01:11;;;;;;;29.40;15.88;;;;;;;;;;10188113;28;20511;-60
2022/03/24 20:06:09;;;;;;;28.88;16.27;;;;;;;;;;10194567;28;20092;-59
2022/03/24 20:11:09;;;;;;;32.83;17.08;;;;;;;;;;10194271;28;20073;-59
2022/03/24 20:16:07;;;;;;;29.17;18.27;;;;;;;;;;10195984;28;20534;-59
2022/03/24 20:21:06;;;;;;;35.70;19.77;;;;;;;;;;10195128;28;20070;-59
2022/03/24 20:26:04;;;;;;;33.08;18.75;;;;;;;;;;10194087;28;20511;-59
2022/03/24 20:31:04;;;;;;;33.35;18.55;;;;;;;;;;10195316;28;20039;-59
2022/03/24 20:36:02;;;;;;;24.52;17.02;;;;;;;;;;10194514;28;20132;-59
2022/03/24 20:41:00;;;;;;;27.52;19.67;;;;;;;;;;10193748;28;20078;-59
2022/03/24 20:45:59;;;;;;;32.22;17.15;;;;;;;;;;10194244;28;20074;-59
2022/03/24 20:50:58;;;;;;;25.48;18.30;;;;;;;;;;10193050;28;20073;-59
2022/03/24 20:55:57;;;;;;;21.58;14.68;;;;;;;;;;10194718;28;20073;-58
2022/03/24 21:00:55;;;;;;;26.85;15.18;;;;;;;;;;10197242;28;20053;-58
2022/03/24 21:05:54;;;;;;;24.90;13.80;;;;;;;;;;10197805;28;20073;-58
2022/03/24 21:10:53;;;;;;;27.73;14.55;;;;;;;;;;10194378;28;20062;-58
2022/03/24 21:15:52;;;;;;;19.63;12.48;;;;;;;;;;10189848;28;20070;-58
2022/03/24 21:20:50;;;;;;;19.27;11.15;;;;;;;;;;10193774;28;20610;-58
2022/03/24 21:25:50;;;;;;;17.73;10.75;;;;;;;;;;10196307;28;20069;-58
2022/03/24 21:30:50;;;;;;;20.27;13.07;;;;;;;;;;10195789;28;20085;-59
2022/03/24 21:35:48;;;;;;;24.20;12.20;;;;;;;;;;10196243;28;20080;-59
2022/03/24 21:40:46;;;;;;;40.83;24.65;;;;;;;;;;10193239;28;20042;-58
2022/03/24 21:45:45;;;;;;;21.85;13.98;;;;;;;;;;10192791;28;20077;-58
2022/03/24 21:50:45;;;;;;;21.30;13.93;;;;;;;;;;10194199;28;20042;-59
2022/03/24 21:55:43;;;;;;;16.98;11.13;;;;;;;;;;10195398;28;20073;-59
2022/03/24 22:59:36;;;;;;;21.00;11.32;;;;;;;;;;10193125;28;20081;-59
2022/03/24 23:04:34;;;;;;;17.60;10.85;;;;;;;;;;10188068;28;20077;-59
2022/03/24 23:09:32;;;;;;;19.15;10.43;;;;;;;;;;10193198;28;20459;-59
2022/03/24 23:14:31;;;;;;;12.93;9.75;;;;;;;;;;10192389;28;20050;-59
2022/03/24 23:19:31;;;;;;;12.40;9.70;;;;;;;;;;10192434;28;20053;-58
2022/03/24 23:24:29;;;;;;;12.15;8.60;;;;;;;;;;10192215;28;20081;-59
2022/03/24 23:29:28;;;;;;;14.65;10.15;;;;;;;;;;10186743;28;20188;-57
2022/03/24 23:34:26;;;;;;;17.73;10.75;;;;;;;;;;10191837;28;20084;-58
2022/03/24 23:39:26;;;;;;;21.15;10.57;;;;;;;;;;10191121;28;20042;-57
2022/03/24 23:44:24;;;;;;;21.52;11.48;;;;;;;;;;10191038;28;20469;-57
2022/03/24 23:49:22;;;;;;;16.83;11.70;;;;;;;;;;10187882;28;20069;-58
2022/03/24 23:54:21;;;;;;;19.17;10.38;;;;;;;;;;10187851;28;20259;-57
2022/03/24 23:59:21;;;;;;;14.18;9.05;;;;;;;;;;10187009;28;20090;-58
